sensor_id;sensor_type;location;lat;lon;timestamp;P1;durP1;ratioP1;P2;durP2;ratioP2
11287;SDS011;5700;50.996;7.044;2024-01-25T00:01:28;26.88;;;4.40;;
11287;SDS011;5700;50.996;7.044;2024-01-25T00:04:30;21.48;;;3.80;;
11287;SDS011;5700;50.996;7.044;2024-01-25T00:07:32;24.58;;;4.63;;
11287;SDS011;5700;50.996;7.044;2024-01-25T00:10:33;23.98;;;4.35;;
11287;SDS011;5700;50.996;7.044;2024-01-25T00:13:37;22.98;;;4.22;;
11287;SDS011;5700;50.996;7.044;2024-01-25T00:16:40;23.70;;;4.35;;
11287;SDS011;5700;50.996;7.044;2024-01-25T00:19:42;21.55;;;5.22;;
11287;SDS011;5700;50.996;7.044;2024-01-25T00:22:43;27.35;;;4.40;;
11287;SDS011;5700;50.996;7.044;2024-01-25T00:25:45;29.17;;;5.05;;
11287;SDS011;5700;50.996;7.044;2024-01-25T00:28:48;25.70;;;5.07;;
11287;SDS011;5700;50.996;7.044;2024-01-25T00:31:50;22.63;;;4.28;;
11287;SDS011;5700;50.996;7.044;2024-01-25T00:34:52;16.70;;;3.92;;
11287;SDS011;5700;50.996;7.044;2024-01-25T00:37:54;26.92;;;4.95;;
11287;SDS011;5700;50.996;7.044;2024-01-25T00:40:56;25.40;;;4.97;;
11287;SDS011;5700;50.996;7.044;2024-01-25T00:43:59;18.13;;;4.57;;
11287;SDS011;5700;50.996;7.044;2024-01-25T00:47:01;22.58;;;4.55;;
11287;SDS011;5700;50.996;7.044;2024-01-25T00:50:03;26.70;;;4.95;;
11287;SDS011;5700;50.996;7.044;2024-01-25T00:53:05;26.63;;;5.28;;
11287;SDS011;5700;50.996;7.044;2024-01-25T00:56:08;28.52;;;4.72;;
11287;SDS011;5700;50.996;7.044;2024-01-25T00:59:12;21.02;;;4.05;;
11287;SDS011;5700;50.996;7.044;2024-01-25T01:02:14;23.92;;;5.32;;
11287;SDS011;5700;50.996;7.044;2024-01-25T01:05:16;29.92;;;5.13;;
11287;SDS011;5700;50.996;7.044;2024-01-25T01:08:18;17.08;;;3.63;;
11287;SDS011;5700;50.996;7.044;2024-01-25T01:11:20;25.20;;;4.47;;
11287;SDS011;5700;50.996;7.044;2024-01-25T01:14:23;11.25;;;3.47;;
11287;SDS011;5700;50.996;7.044;2024-01-25T01:17:25;25.80;;;4.85;;
11287;SDS011;5700;50.996;7.044;2024-01-25T01:20:27;21.83;;;4.57;;
11287;SDS011;5700;50.996;7.044;2024-01-25T01:23:29;22.65;;;4.53;;
11287;SDS011;5700;50.996;7.044;2024-01-25T01:26:31;23.17;;;5.60;;
11287;SDS011;5700;50.996;7.044;2024-01-25T01:29:36;21.52;;;4.00;;
11287;SDS011;5700;50.996;7.044;2024-01-25T01:32:37;28.15;;;5.00;;
11287;SDS011;5700;50.996;7.044;2024-01-25T01:35:40;21.00;;;3.97;;
11287;SDS011;5700;50.996;7.044;2024-01-25T01:38:42;31.75;;;4.65;;
11287;SDS011;5700;50.996;7.044;2024-01-25T01:41:46;20.42;;;4.32;;
11287;SDS011;5700;50.996;7.044;2024-01-25T01:44:49;22.60;;;3.67;;
11287;SDS011;5700;50.996;7.044;2024-01-25T01:47:51;26.33;;;4.60;;
11287;SDS011;5700;50.996;7.044;2024-01-25T01:50:53;25.45;;;4.85;;
11287;SDS011;5700;50.996;7.044;2024-01-25T01:53:54;27.38;;;4.10;;
11287;SDS011;5700;50.996;7.044;2024-01-25T01:56:56;19.33;;;4.00;;
11287;SDS011;5700;50.996;7.044;2024-01-25T01:59:59;15.32;;;3.30;;
11287;SDS011;5700;50.996;7.044;2024-01-25T02:03:04;25.10;;;4.63;;
11287;SDS011;5700;50.996;7.044;2024-01-25T02:06:05;21.88;;;4.38;;
11287;SDS011;5700;50.996;7.044;2024-01-25T02:09:07;22.80;;;4.40;;
11287;SDS011;5700;50.996;7.044;2024-01-25T02:12:10;24.35;;;4.20;;
11287;SDS011;5700;50.996;7.044;2024-01-25T02:15:13;27.42;;;4.15;;
11287;SDS011;5700;50.996;7.044;2024-01-25T02:18:15;23.50;;;3.38;;
11287;SDS011;5700;50.996;7.044;2024-01-25T02:21:16;28.08;;;4.90;;
11287;SDS011;5700;50.996;7.044;2024-01-25T02:24:20;31.88;;;5.68;;
11287;SDS011;5700;50.996;7.044;2024-01-25T02:27:21;29.90;;;4.80;;
11287;SDS011;5700;50.996;7.044;2024-01-25T02:30:23;27.75;;;5.97;;
11287;SDS011;5700;50.996;7.044;2024-01-25T02:33:25;24.85;;;4.68;;
11287;SDS011;5700;50.996;7.044;2024-01-25T02:36:26;32.50;;;4.80;;
11287;SDS011;5700;50.996;7.044;2024-01-25T02:39:29;22.10;;;4.10;;
11287;SDS011;5700;50.996;7.044;2024-01-25T02:42:31;30.20;;;5.00;;
11287;SDS011;5700;50.996;7.044;2024-01-25T02:45:33;27.15;;;4.25;;
11287;SDS011;5700;50.996;7.044;2024-01-25T02:48:35;25.13;;;4.90;;
11287;SDS011;5700;50.996;7.044;2024-01-25T02:51:36;31.40;;;5.78;;
11287;SDS011;5700;50.996;7.044;2024-01-25T02:54:39;25.70;;;4.45;;
11287;SDS011;5700;50.996;7.044;2024-01-25T02:57:41;38.28;;;5.63;;
11287;SDS011;5700;50.996;7.044;2024-01-25T03:00:43;21.42;;;4.05;;
11287;SDS011;5700;50.996;7.044;2024-01-25T03:03:45;26.02;;;4.18;;
11287;SDS011;5700;50.996;7.044;2024-01-25T03:06:47;23.75;;;4.70;;
11287;SDS011;5700;50.996;7.044;2024-01-25T03:09:50;21.00;;;3.95;;
11287;SDS011;5700;50.996;7.044;2024-01-25T03:12:52;24.23;;;4.85;;
11287;SDS011;5700;50.996;7.044;2024-01-25T03:15:54;24.13;;;4.28;;
11287;SDS011;5700;50.996;7.044;2024-01-25T03:18:55;26.23;;;4.97;;
11287;SDS011;5700;50.996;7.044;2024-01-25T03:21:57;26.52;;;4.82;;
11287;SDS011;5700;50.996;7.044;2024-01-25T03:25:02;30.20;;;3.97;;
11287;SDS011;5700;50.996;7.044;2024-01-25T03:28:04;17.17;;;3.95;;
11287;SDS011;5700;50.996;7.044;2024-01-25T03:31:09;25.85;;;5.30;;
11287;SDS011;5700;50.996;7.044;2024-01-25T03:34:10;29.27;;;5.18;;
11287;SDS011;5700;50.996;7.044;2024-01-25T03:37:12;24.60;;;4.18;;
11287;SDS011;5700;50.996;7.044;2024-01-25T03:40:15;17.60;;;3.58;;
11287;SDS011;5700;50.996;7.044;2024-01-25T03:43:17;18.35;;;4.35;;
11287;SDS011;5700;50.996;7.044;2024-01-25T03:46:19;19.40;;;3.38;;
11287;SDS011;5700;50.996;7.044;2024-01-25T03:49:21;18.13;;;4.82;;
11287;SDS011;5700;50.996;7.044;2024-01-25T03:52:24;28.67;;;5.13;;
11287;SDS011;5700;50.996;7.044;2024-01-25T03:55:31;27.58;;;5.32;;
11287;SDS011;5700;50.996;7.044;2024-01-25T03:58:33;18.60;;;4.28;;
11287;SDS011;5700;50.996;7.044;2024-01-25T04:01:34;25.55;;;4.43;;
11287;SDS011;5700;50.996;7.044;2024-01-25T04:04:42;24.08;;;4.65;;
11287;SDS011;5700;50.996;7.044;2024-01-25T04:07:44;35.50;;;6.32;;
11287;SDS011;5700;50.996;7.044;2024-01-25T04:10:48;24.67;;;5.85;;
11287;SDS011;5700;50.996;7.044;2024-01-25T04:13:49;26.10;;;4.28;;
11287;SDS011;5700;50.996;7.044;2024-01-25T04:16:50;34.78;;;6.72;;
11287;SDS011;5700;50.996;7.044;2024-01-25T04:19:52;24.48;;;4.63;;
11287;SDS011;5700;50.996;7.044;2024-01-25T04:22:54;20.63;;;4.88;;
11287;SDS011;5700;50.996;7.044;2024-01-25T04:25:57;28.70;;;5.82;;
11287;SDS011;5700;50.996;7.044;2024-01-25T04:28:58;27.35;;;5.15;;
11287;SDS011;5700;50.996;7.044;2024-01-25T04:32:00;22.35;;;4.55;;
11287;SDS011;5700;50.996;7.044;2024-01-25T04:35:02;23.23;;;4.68;;
11287;SDS011;5700;50.996;7.044;2024-01-25T04:38:04;21.40;;;5.03;;
11287;SDS011;5700;50.996;7.044;2024-01-25T04:41:07;25.13;;;4.68;;
11287;SDS011;5700;50.996;7.044;2024-01-25T04:44:09;33.25;;;5.18;;
11287;SDS011;5700;50.996;7.044;2024-01-25T04:47:11;26.08;;;5.07;;
11287;SDS011;5700;50.996;7.044;2024-01-25T04:50:12;29.48;;;6.32;;
11287;SDS011;5700;50.996;7.044;2024-01-25T04:53:14;22.50;;;5.63;;
11287;SDS011;5700;50.996;7.044;2024-01-25T04:56:17;19.60;;;4.60;;
11287;SDS011;5700;50.996;7.044;2024-01-25T04:59:19;27.75;;;4.68;;
11287;SDS011;5700;50.996;7.044;2024-01-25T05:02:20;21.25;;;4.15;;
11287;SDS011;5700;50.996;7.044;2024-01-25T05:05:22;25.85;;;4.95;;
11287;SDS011;5700;50.996;7.044;2024-01-25T05:08:24;29.77;;;4.75;;
11287;SDS011;5700;50.996;7.044;2024-01-25T05:11:27;27.10;;;4.90;;
11287;SDS011;5700;50.996;7.044;2024-01-25T05:14:29;23.75;;;3.97;;
11287;SDS011;5700;50.996;7.044;2024-01-25T05:17:30;27.67;;;5.28;;
11287;SDS011;5700;50.996;7.044;2024-01-25T05:20:33;26.90;;;5.10;;
11287;SDS011;5700;50.996;7.044;2024-01-25T05:23:36;19.45;;;4.07;;
11287;SDS011;5700;50.996;7.044;2024-01-25T05:26:39;31.77;;;6.22;;
11287;SDS011;5700;50.996;7.044;2024-01-25T05:29:41;26.00;;;5.32;;
11287;SDS011;5700;50.996;7.044;2024-01-25T05:32:43;21.67;;;4.40;;
11287;SDS011;5700;50.996;7.044;2024-01-25T05:35:45;18.67;;;4.10;;
11287;SDS011;5700;50.996;7.044;2024-01-25T05:38:47;16.95;;;3.97;;
11287;SDS011;5700;50.996;7.044;2024-01-25T05:41:50;22.50;;;4.05;;
11287;SDS011;5700;50.996;7.044;2024-01-25T05:44:52;24.00;;;3.63;;
11287;SDS011;5700;50.996;7.044;2024-01-25T05:47:53;26.38;;;4.72;;
11287;SDS011;5700;50.996;7.044;2024-01-25T05:50:55;12.30;;;2.95;;
11287;SDS011;5700;50.996;7.044;2024-01-25T05:53:57;20.08;;;3.17;;
11287;SDS011;5700;50.996;7.044;2024-01-25T05:57:00;19.52;;;3.88;;
11287;SDS011;5700;50.996;7.044;2024-01-25T06:00:02;22.10;;;4.15;;
11287;SDS011;5700;50.996;7.044;2024-01-25T06:03:05;23.65;;;4.28;;
11287;SDS011;5700;50.996;7.044;2024-01-25T06:06:07;22.58;;;3.55;;
11287;SDS011;5700;50.996;7.044;2024-01-25T06:09:08;24.23;;;3.67;;
11287;SDS011;5700;50.996;7.044;2024-01-25T06:12:12;14.07;;;3.03;;
11287;SDS011;5700;50.996;7.044;2024-01-25T06:15:13;21.90;;;3.53;;
11287;SDS011;5700;50.996;7.044;2024-01-25T06:18:15;21.85;;;4.35;;
11287;SDS011;5700;50.996;7.044;2024-01-25T06:21:16;10.48;;;2.85;;
11287;SDS011;5700;50.996;7.044;2024-01-25T06:24:19;18.65;;;3.50;;
11287;SDS011;5700;50.996;7.044;2024-01-25T06:27:22;14.20;;;3.30;;
11287;SDS011;5700;50.996;7.044;2024-01-25T06:30:23;21.52;;;4.38;;
11287;SDS011;5700;50.996;7.044;2024-01-25T06:33:26;15.77;;;3.88;;
11287;SDS011;5700;50.996;7.044;2024-01-25T06:36:30;18.60;;;4.25;;
11287;SDS011;5700;50.996;7.044;2024-01-25T06:39:32;17.00;;;3.80;;
11287;SDS011;5700;50.996;7.044;2024-01-25T06:42:35;16.35;;;3.42;;
11287;SDS011;5700;50.996;7.044;2024-01-25T06:45:37;16.17;;;3.38;;
11287;SDS011;5700;50.996;7.044;2024-01-25T06:48:40;14.30;;;3.58;;
11287;SDS011;5700;50.996;7.044;2024-01-25T06:51:41;11.55;;;2.97;;
11287;SDS011;5700;50.996;7.044;2024-01-25T06:54:43;19.90;;;3.22;;
11287;SDS011;5700;50.996;7.044;2024-01-25T06:57:46;19.02;;;4.03;;
11287;SDS011;5700;50.996;7.044;2024-01-25T07:00:48;20.63;;;3.97;;
11287;SDS011;5700;50.996;7.044;2024-01-25T07:03:50;17.52;;;3.95;;
11287;SDS011;5700;50.996;7.044;2024-01-25T07:06:51;19.60;;;4.32;;
11287;SDS011;5700;50.996;7.044;2024-01-25T07:09:53;18.17;;;3.55;;
11287;SDS011;5700;50.996;7.044;2024-01-25T07:12:56;17.52;;;3.08;;
11287;SDS011;5700;50.996;7.044;2024-01-25T07:15:58;17.05;;;3.95;;
11287;SDS011;5700;50.996;7.044;2024-01-25T07:19:00;19.63;;;3.67;;
11287;SDS011;5700;50.996;7.044;2024-01-25T07:22:01;13.68;;;3.35;;
11287;SDS011;5700;50.996;7.044;2024-01-25T07:25:03;21.05;;;4.18;;
11287;SDS011;5700;50.996;7.044;2024-01-25T07:28:06;15.40;;;3.97;;
11287;SDS011;5700;50.996;7.044;2024-01-25T07:31:08;11.13;;;3.35;;
11287;SDS011;5700;50.996;7.044;2024-01-25T07:34:10;20.33;;;3.83;;
11287;SDS011;5700;50.996;7.044;2024-01-25T07:37:12;18.83;;;4.00;;
11287;SDS011;5700;50.996;7.044;2024-01-25T07:40:14;15.43;;;4.63;;
11287;SDS011;5700;50.996;7.044;2024-01-25T07:43:17;15.30;;;3.50;;
11287;SDS011;5700;50.996;7.044;2024-01-25T07:46:18;22.77;;;4.93;;
11287;SDS011;5700;50.996;7.044;2024-01-25T07:49:20;16.00;;;3.67;;
11287;SDS011;5700;50.996;7.044;2024-01-25T07:52:22;18.98;;;3.60;;
11287;SDS011;5700;50.996;7.044;2024-01-25T07:55:23;25.75;;;3.88;;
11287;SDS011;5700;50.996;7.044;2024-01-25T07:58:26;16.80;;;3.97;;
11287;SDS011;5700;50.996;7.044;2024-01-25T08:01:30;20.77;;;3.88;;
11287;SDS011;5700;50.996;7.044;2024-01-25T08:04:32;19.13;;;3.42;;
11287;SDS011;5700;50.996;7.044;2024-01-25T08:07:35;16.20;;;3.35;;
11287;SDS011;5700;50.996;7.044;2024-01-25T08:10:37;16.50;;;3.28;;
11287;SDS011;5700;50.996;7.044;2024-01-25T08:13:43;12.85;;;3.05;;
11287;SDS011;5700;50.996;7.044;2024-01-25T08:16:45;18.17;;;4.10;;
11287;SDS011;5700;50.996;7.044;2024-01-25T08:19:47;20.20;;;3.70;;
11287;SDS011;5700;50.996;7.044;2024-01-25T08:22:48;18.65;;;4.28;;
11287;SDS011;5700;50.996;7.044;2024-01-25T08:25:50;24.98;;;4.75;;
11287;SDS011;5700;50.996;7.044;2024-01-25T08:28:53;20.75;;;4.28;;
11287;SDS011;5700;50.996;7.044;2024-01-25T08:31:55;24.98;;;4.45;;
11287;SDS011;5700;50.996;7.044;2024-01-25T08:34:56;24.45;;;4.35;;
11287;SDS011;5700;50.996;7.044;2024-01-25T08:37:58;20.15;;;4.45;;
11287;SDS011;5700;50.996;7.044;2024-01-25T08:41:00;21.52;;;4.47;;
11287;SDS011;5700;50.996;7.044;2024-01-25T08:44:03;17.75;;;3.38;;
11287;SDS011;5700;50.996;7.044;2024-01-25T08:47:04;28.02;;;4.43;;
11287;SDS011;5700;50.996;7.044;2024-01-25T08:50:06;24.65;;;4.88;;
11287;SDS011;5700;50.996;7.044;2024-01-25T08:53:10;22.33;;;4.50;;
11287;SDS011;5700;50.996;7.044;2024-01-25T08:56:11;18.33;;;4.47;;
11287;SDS011;5700;50.996;7.044;2024-01-25T08:59:14;20.75;;;4.25;;
11287;SDS011;5700;50.996;7.044;2024-01-25T09:02:16;20.55;;;4.75;;
11287;SDS011;5700;50.996;7.044;2024-01-25T09:05:19;15.50;;;2.83;;
11287;SDS011;5700;50.996;7.044;2024-01-25T09:08:20;20.38;;;4.68;;
11287;SDS011;5700;50.996;7.044;2024-01-25T09:11:22;22.58;;;4.63;;
11287;SDS011;5700;50.996;7.044;2024-01-25T09:14:25;28.05;;;5.05;;
11287;SDS011;5700;50.996;7.044;2024-01-25T09:17:26;18.30;;;3.30;;
11287;SDS011;5700;50.996;7.044;2024-01-25T09:20:28;24.42;;;5.30;;
11287;SDS011;5700;50.996;7.044;2024-01-25T09:23:29;19.83;;;4.82;;
11287;SDS011;5700;50.996;7.044;2024-01-25T09:26:31;17.23;;;3.90;;
11287;SDS011;5700;50.996;7.044;2024-01-25T09:29:34;18.38;;;4.32;;
11287;SDS011;5700;50.996;7.044;2024-01-25T09:32:35;13.38;;;3.90;;
11287;SDS011;5700;50.996;7.044;2024-01-25T09:35:37;18.58;;;4.93;;
11287;SDS011;5700;50.996;7.044;2024-01-25T09:38:39;18.60;;;4.93;;
11287;SDS011;5700;50.996;7.044;2024-01-25T09:41:40;14.02;;;3.83;;
11287;SDS011;5700;50.996;7.044;2024-01-25T09:44:44;13.20;;;3.72;;
11287;SDS011;5700;50.996;7.044;2024-01-25T09:47:46;26.45;;;4.70;;
11287;SDS011;5700;50.996;7.044;2024-01-25T09:50:48;18.95;;;5.28;;
11287;SDS011;5700;50.996;7.044;2024-01-25T09:53:49;25.90;;;4.50;;
11287;SDS011;5700;50.996;7.044;2024-01-25T09:56:52;21.08;;;6.38;;
11287;SDS011;5700;50.996;7.044;2024-01-25T09:59:56;26.20;;;6.72;;
11287;SDS011;5700;50.996;7.044;2024-01-25T10:02:58;35.22;;;7.47;;
11287;SDS011;5700;50.996;7.044;2024-01-25T10:05:59;36.75;;;9.00;;
11287;SDS011;5700;50.996;7.044;2024-01-25T10:09:01;29.55;;;8.00;;
11287;SDS011;5700;50.996;7.044;2024-01-25T10:12:03;29.73;;;8.35;;
11287;SDS011;5700;50.996;7.044;2024-01-25T10:15:07;31.42;;;9.20;;
11287;SDS011;5700;50.996;7.044;2024-01-25T10:18:09;35.20;;;9.43;;
11287;SDS011;5700;50.996;7.044;2024-01-25T10:21:13;31.90;;;9.13;;
11287;SDS011;5700;50.996;7.044;2024-01-25T10:24:15;41.70;;;9.75;;
11287;SDS011;5700;50.996;7.044;2024-01-25T10:27:17;42.38;;;9.85;;
11287;SDS011;5700;50.996;7.044;2024-01-25T10:30:21;26.67;;;9.32;;
11287;SDS011;5700;50.996;7.044;2024-01-25T10:33:23;34.33;;;8.40;;
11287;SDS011;5700;50.996;7.044;2024-01-25T10:36:25;32.30;;;8.60;;
11287;SDS011;5700;50.996;7.044;2024-01-25T10:39:27;27.80;;;8.43;;
11287;SDS011;5700;50.996;7.044;2024-01-25T10:42:30;27.02;;;9.05;;
11287;SDS011;5700;50.996;7.044;2024-01-25T10:45:33;32.30;;;8.88;;
11287;SDS011;5700;50.996;7.044;2024-01-25T10:48:35;33.47;;;8.50;;
11287;SDS011;5700;50.996;7.044;2024-01-25T10:51:36;27.63;;;7.93;;
11287;SDS011;5700;50.996;7.044;2024-01-25T10:54:38;29.50;;;8.75;;
11287;SDS011;5700;50.996;7.044;2024-01-25T10:57:42;19.17;;;7.25;;
11287;SDS011;5700;50.996;7.044;2024-01-25T11:00:50;28.00;;;8.57;;
11287;SDS011;5700;50.996;7.044;2024-01-25T11:03:53;27.77;;;8.10;;
11287;SDS011;5700;50.996;7.044;2024-01-25T11:07:04;24.50;;;8.32;;
11287;SDS011;5700;50.996;7.044;2024-01-25T11:10:06;27.00;;;6.70;;
11287;SDS011;5700;50.996;7.044;2024-01-25T11:13:13;24.45;;;7.38;;
11287;SDS011;5700;50.996;7.044;2024-01-25T11:16:17;31.27;;;7.55;;
11287;SDS011;5700;50.996;7.044;2024-01-25T11:19:21;27.73;;;7.40;;
11287;SDS011;5700;50.996;7.044;2024-01-25T11:22:22;23.27;;;6.47;;
11287;SDS011;5700;50.996;7.044;2024-01-25T11:25:26;34.10;;;7.40;;
11287;SDS011;5700;50.996;7.044;2024-01-25T11:28:28;23.63;;;6.15;;
11287;SDS011;5700;50.996;7.044;2024-01-25T11:31:31;25.48;;;6.57;;
11287;SDS011;5700;50.996;7.044;2024-01-25T11:34:32;19.20;;;6.18;;
11287;SDS011;5700;50.996;7.044;2024-01-25T11:37:34;23.88;;;6.32;;
11287;SDS011;5700;50.996;7.044;2024-01-25T11:40:35;29.10;;;5.85;;
11287;SDS011;5700;50.996;7.044;2024-01-25T11:43:37;27.00;;;7.50;;
11287;SDS011;5700;50.996;7.044;2024-01-25T11:46:40;27.23;;;6.03;;
11287;SDS011;5700;50.996;7.044;2024-01-25T11:49:42;22.20;;;6.40;;
11287;SDS011;5700;50.996;7.044;2024-01-25T11:52:44;28.85;;;7.07;;
11287;SDS011;5700;50.996;7.044;2024-01-25T11:55:45;26.10;;;5.75;;
11287;SDS011;5700;50.996;7.044;2024-01-25T11:58:47;23.75;;;6.38;;
11287;SDS011;5700;50.996;7.044;2024-01-25T12:01:50;23.92;;;5.90;;
11287;SDS011;5700;50.996;7.044;2024-01-25T12:04:52;27.50;;;6.30;;
11287;SDS011;5700;50.996;7.044;2024-01-25T12:07:55;20.80;;;5.97;;
11287;SDS011;5700;50.996;7.044;2024-01-25T12:11:02;15.02;;;4.97;;
11287;SDS011;5700;50.996;7.044;2024-01-25T12:14:07;17.67;;;5.43;;
11287;SDS011;5700;50.996;7.044;2024-01-25T12:17:10;21.92;;;5.63;;
11287;SDS011;5700;50.996;7.044;2024-01-25T12:20:11;32.38;;;5.90;;
11287;SDS011;5700;50.996;7.044;2024-01-25T12:23:13;19.55;;;6.10;;
11287;SDS011;5700;50.996;7.044;2024-01-25T12:26:15;18.90;;;5.10;;
11287;SDS011;5700;50.996;7.044;2024-01-25T12:29:18;30.88;;;6.85;;
11287;SDS011;5700;50.996;7.044;2024-01-25T12:32:29;19.92;;;5.63;;
11287;SDS011;5700;50.996;7.044;2024-01-25T12:35:31;25.00;;;5.25;;
11287;SDS011;5700;50.996;7.044;2024-01-25T12:38:33;15.25;;;4.72;;
11287;SDS011;5700;50.996;7.044;2024-01-25T12:41:35;16.73;;;4.40;;
11287;SDS011;5700;50.996;7.044;2024-01-25T12:44:37;16.15;;;4.47;;
11287;SDS011;5700;50.996;7.044;2024-01-25T12:47:41;18.00;;;4.32;;
11287;SDS011;5700;50.996;7.044;2024-01-25T12:50:43;18.10;;;3.42;;
11287;SDS011;5700;50.996;7.044;2024-01-25T12:53:45;20.38;;;4.78;;
11287;SDS011;5700;50.996;7.044;2024-01-25T12:56:47;21.30;;;4.80;;
11287;SDS011;5700;50.996;7.044;2024-01-25T12:59:48;25.33;;;4.45;;
11287;SDS011;5700;50.996;7.044;2024-01-25T13:02:51;15.38;;;4.47;;
11287;SDS011;5700;50.996;7.044;2024-01-25T13:05:53;17.15;;;4.15;;
11287;SDS011;5700;50.996;7.044;2024-01-25T13:08:54;17.17;;;3.70;;
11287;SDS011;5700;50.996;7.044;2024-01-25T13:11:56;14.20;;;3.75;;
11287;SDS011;5700;50.996;7.044;2024-01-25T13:14:57;19.75;;;4.15;;
11287;SDS011;5700;50.996;7.044;2024-01-25T13:18:01;19.33;;;4.20;;
11287;SDS011;5700;50.996;7.044;2024-01-25T13:21:02;21.63;;;3.70;;
11287;SDS011;5700;50.996;7.044;2024-01-25T13:24:04;13.00;;;3.17;;
11287;SDS011;5700;50.996;7.044;2024-01-25T13:27:06;12.75;;;2.80;;
11287;SDS011;5700;50.996;7.044;2024-01-25T13:30:08;18.70;;;4.22;;
11287;SDS011;5700;50.996;7.044;2024-01-25T13:33:13;24.55;;;4.68;;
11287;SDS011;5700;50.996;7.044;2024-01-25T13:36:15;16.25;;;3.78;;
11287;SDS011;5700;50.996;7.044;2024-01-25T13:39:16;16.58;;;4.18;;
11287;SDS011;5700;50.996;7.044;2024-01-25T13:42:18;22.38;;;4.28;;
11287;SDS011;5700;50.996;7.044;2024-01-25T13:45:20;17.73;;;4.53;;
11287;SDS011;5700;50.996;7.044;2024-01-25T13:48:23;14.93;;;3.33;;
11287;SDS011;5700;50.996;7.044;2024-01-25T13:51:25;15.00;;;3.53;;
11287;SDS011;5700;50.996;7.044;2024-01-25T13:54:27;12.07;;;3.47;;
11287;SDS011;5700;50.996;7.044;2024-01-25T13:57:29;11.50;;;2.95;;
11287;SDS011;5700;50.996;7.044;2024-01-25T14:00:30;11.07;;;3.17;;
11287;SDS011;5700;50.996;7.044;2024-01-25T14:03:35;16.00;;;3.70;;
11287;SDS011;5700;50.996;7.044;2024-01-25T14:06:36;20.40;;;4.18;;
11287;SDS011;5700;50.996;7.044;2024-01-25T14:09:37;12.65;;;2.92;;
11287;SDS011;5700;50.996;7.044;2024-01-25T14:12:41;11.48;;;2.92;;
11287;SDS011;5700;50.996;7.044;2024-01-25T14:15:43;10.55;;;2.80;;
11287;SDS011;5700;50.996;7.044;2024-01-25T14:18:47;11.80;;;2.92;;
11287;SDS011;5700;50.996;7.044;2024-01-25T14:21:49;11.73;;;2.55;;
11287;SDS011;5700;50.996;7.044;2024-01-25T14:24:51;11.27;;;2.35;;
11287;SDS011;5700;50.996;7.044;2024-01-25T14:27:53;12.27;;;2.75;;
11287;SDS011;5700;50.996;7.044;2024-01-25T14:30:55;12.57;;;2.60;;
11287;SDS011;5700;50.996;7.044;2024-01-25T14:33:58;12.68;;;3.10;;
11287;SDS011;5700;50.996;7.044;2024-01-25T14:36:59;10.57;;;2.92;;
11287;SDS011;5700;50.996;7.044;2024-01-25T14:40:01;13.00;;;3.70;;
11287;SDS011;5700;50.996;7.044;2024-01-25T14:43:03;9.57;;;2.33;;
11287;SDS011;5700;50.996;7.044;2024-01-25T14:46:05;8.23;;;2.40;;
11287;SDS011;5700;50.996;7.044;2024-01-25T14:49:08;9.88;;;2.30;;
11287;SDS011;5700;50.996;7.044;2024-01-25T14:52:10;9.13;;;2.42;;
11287;SDS011;5700;50.996;7.044;2024-01-25T14:55:12;9.05;;;1.90;;
11287;SDS011;5700;50.996;7.044;2024-01-25T14:58:13;11.20;;;2.78;;
11287;SDS011;5700;50.996;7.044;2024-01-25T15:01:22;17.05;;;3.78;;
11287;SDS011;5700;50.996;7.044;2024-01-25T15:04:29;13.00;;;3.05;;
11287;SDS011;5700;50.996;7.044;2024-01-25T15:07:31;10.75;;;3.10;;
11287;SDS011;5700;50.996;7.044;2024-01-25T15:10:35;19.23;;;4.32;;
11287;SDS011;5700;50.996;7.044;2024-01-25T15:13:36;7.63;;;2.13;;
11287;SDS011;5700;50.996;7.044;2024-01-25T15:16:38;11.07;;;3.13;;
11287;SDS011;5700;50.996;7.044;2024-01-25T15:19:41;9.25;;;2.80;;
11287;SDS011;5700;50.996;7.044;2024-01-25T15:22:44;10.07;;;2.40;;
11287;SDS011;5700;50.996;7.044;2024-01-25T15:25:46;11.25;;;2.88;;
11287;SDS011;5700;50.996;7.044;2024-01-25T15:28:47;12.07;;;2.42;;
11287;SDS011;5700;50.996;7.044;2024-01-25T15:31:49;14.75;;;2.83;;
11287;SDS011;5700;50.996;7.044;2024-01-25T15:34:51;9.13;;;2.88;;
11287;SDS011;5700;50.996;7.044;2024-01-25T15:37:53;15.75;;;3.55;;
11287;SDS011;5700;50.996;7.044;2024-01-25T15:40:55;18.73;;;3.28;;
11287;SDS011;5700;50.996;7.044;2024-01-25T15:43:56;11.00;;;3.00;;
11287;SDS011;5700;50.996;7.044;2024-01-25T15:46:58;8.38;;;2.33;;
11287;SDS011;5700;50.996;7.044;2024-01-25T15:50:01;6.88;;;2.17;;
11287;SDS011;5700;50.996;7.044;2024-01-25T15:53:05;16.25;;;3.55;;
11287;SDS011;5700;50.996;7.044;2024-01-25T15:56:06;14.85;;;3.03;;
11287;SDS011;5700;50.996;7.044;2024-01-25T15:59:08;12.13;;;2.90;;
11287;SDS011;5700;50.996;7.044;2024-01-25T16:02:10;11.65;;;3.08;;
11287;SDS011;5700;50.996;7.044;2024-01-25T16:05:13;12.52;;;2.65;;
11287;SDS011;5700;50.996;7.044;2024-01-25T16:08:15;9.82;;;2.78;;
11287;SDS011;5700;50.996;7.044;2024-01-25T16:11:17;14.38;;;2.85;;
11287;SDS011;5700;50.996;7.044;2024-01-25T16:14:18;13.60;;;3.35;;
11287;SDS011;5700;50.996;7.044;2024-01-25T16:17:20;11.05;;;2.75;;
11287;SDS011;5700;50.996;7.044;2024-01-25T16:20:23;8.50;;;2.42;;
11287;SDS011;5700;50.996;7.044;2024-01-25T16:23:25;11.82;;;3.13;;
11287;SDS011;5700;50.996;7.044;2024-01-25T16:26:27;15.30;;;3.65;;
11287;SDS011;5700;50.996;7.044;2024-01-25T16:29:28;10.80;;;2.60;;
11287;SDS011;5700;50.996;7.044;2024-01-25T16:32:31;9.65;;;2.80;;
11287;SDS011;5700;50.996;7.044;2024-01-25T16:35:35;7.60;;;2.05;;
11287;SDS011;5700;50.996;7.044;2024-01-25T16:38:37;12.73;;;3.15;;
11287;SDS011;5700;50.996;7.044;2024-01-25T16:41:38;9.05;;;2.63;;
11287;SDS011;5700;50.996;7.044;2024-01-25T16:44:40;11.18;;;2.75;;
11287;SDS011;5700;50.996;7.044;2024-01-25T16:47:42;14.02;;;2.90;;
11287;SDS011;5700;50.996;7.044;2024-01-25T16:50:45;12.18;;;2.72;;
11287;SDS011;5700;50.996;7.044;2024-01-25T16:53:48;14.65;;;3.30;;
11287;SDS011;5700;50.996;7.044;2024-01-25T16:56:50;13.43;;;3.13;;
11287;SDS011;5700;50.996;7.044;2024-01-25T16:59:51;8.00;;;2.17;;
11287;SDS011;5700;50.996;7.044;2024-01-25T17:02:54;8.00;;;2.38;;
11287;SDS011;5700;50.996;7.044;2024-01-25T17:05:57;16.42;;;3.20;;
11287;SDS011;5700;50.996;7.044;2024-01-25T17:08:59;13.32;;;3.20;;
11287;SDS011;5700;50.996;7.044;2024-01-25T17:12:00;15.00;;;3.00;;
11287;SDS011;5700;50.996;7.044;2024-01-25T17:15:03;8.90;;;3.03;;
11287;SDS011;5700;50.996;7.044;2024-01-25T17:18:05;8.93;;;2.42;;
11287;SDS011;5700;50.996;7.044;2024-01-25T17:21:08;9.52;;;2.80;;
11287;SDS011;5700;50.996;7.044;2024-01-25T17:24:10;13.57;;;3.13;;
11287;SDS011;5700;50.996;7.044;2024-01-25T17:27:11;15.57;;;3.45;;
11287;SDS011;5700;50.996;7.044;2024-01-25T17:30:13;17.40;;;3.83;;
11287;SDS011;5700;50.996;7.044;2024-01-25T17:33:15;8.32;;;2.83;;
11287;SDS011;5700;50.996;7.044;2024-01-25T17:36:18;11.65;;;2.97;;
11287;SDS011;5700;50.996;7.044;2024-01-25T17:39:20;9.82;;;2.45;;
11287;SDS011;5700;50.996;7.044;2024-01-25T17:42:22;6.45;;;2.80;;
11287;SDS011;5700;50.996;7.044;2024-01-25T17:45:23;11.77;;;2.97;;
11287;SDS011;5700;50.996;7.044;2024-01-25T17:48:25;22.20;;;12.32;;
11287;SDS011;5700;50.996;7.044;2024-01-25T17:51:29;29.58;;;15.73;;
11287;SDS011;5700;50.996;7.044;2024-01-25T17:54:31;23.42;;;10.88;;
11287;SDS011;5700;50.996;7.044;2024-01-25T17:57:33;17.48;;;8.85;;
11287;SDS011;5700;50.996;7.044;2024-01-25T18:00:34;16.27;;;6.45;;
11287;SDS011;5700;50.996;7.044;2024-01-25T18:03:36;10.95;;;3.83;;
11287;SDS011;5700;50.996;7.044;2024-01-25T18:06:39;15.52;;;4.03;;
11287;SDS011;5700;50.996;7.044;2024-01-25T18:09:41;10.00;;;2.95;;
11287;SDS011;5700;50.996;7.044;2024-01-25T18:12:43;7.55;;;2.35;;
11287;SDS011;5700;50.996;7.044;2024-01-25T18:15:45;9.85;;;2.60;;
11287;SDS011;5700;50.996;7.044;2024-01-25T18:18:47;6.55;;;2.63;;